sensor_id;sensor_type;location;lat;lon;timestamp;temperature;humidity
33007;DHT22;19361;51.598;7.650;2024-01-30T00:02:35;9.90;65.30
33007;DHT22;19361;51.598;7.650;2024-01-30T00:07:36;9.90;65.20
33007;DHT22;19361;51.598;7.650;2024-01-30T00:12:37;9.90;65.10
33007;DHT22;19361;51.598;7.650;2024-01-30T00:17:37;9.80;65.00
33007;DHT22;19361;51.598;7.650;2024-01-30T00:22:38;9.80;64.90
33007;DHT22;19361;51.598;7.650;2024-01-30T00:27:39;9.70;64.80
33007;DHT22;19361;51.598;7.650;2024-01-30T00:32:39;9.70;64.80
33007;DHT22;19361;51.598;7.650;2024-01-30T00:37:40;9.60;64.70
33007;DHT22;19361;51.598;7.650;2024-01-30T00:42:44;9.50;64.90
33007;DHT22;19361;51.598;7.650;2024-01-30T00:47:45;9.50;65.30
33007;DHT22;19361;51.598;7.650;2024-01-30T00:52:45;9.40;65.10
33007;DHT22;19361;51.598;7.650;2024-01-30T00:57:46;9.40;65.30
33007;DHT22;19361;51.598;7.650;2024-01-30T01:02:47;9.40;65.50
33007;DHT22;19361;51.598;7.650;2024-01-30T01:07:48;9.40;65.70
33007;DHT22;19361;51.598;7.650;2024-01-30T01:12:49;9.40;65.90
33007;DHT22;19361;51.598;7.650;2024-01-30T01:17:50;9.40;66.00
33007;DHT22;19361;51.598;7.650;2024-01-30T01:22:50;9.40;66.20
33007;DHT22;19361;51.598;7.650;2024-01-30T01:27:52;9.40;66.50
33007;DHT22;19361;51.598;7.650;2024-01-30T01:32:53;9.40;66.40
33007;DHT22;19361;51.598;7.650;2024-01-30T01:37:57;9.50;66.20
33007;DHT22;19361;51.598;7.650;2024-01-30T01:43:03;9.40;66.10
33007;DHT22;19361;51.598;7.650;2024-01-30T01:48:04;9.40;66.20
33007;DHT22;19361;51.598;7.650;2024-01-30T01:53:07;9.40;66.00
33007;DHT22;19361;51.598;7.650;2024-01-30T01:58:09;9.30;66.10
33007;DHT22;19361;51.598;7.650;2024-01-30T02:03:10;9.30;65.90
33007;DHT22;19361;51.598;7.650;2024-01-30T02:08:12;9.30;65.90
33007;DHT22;19361;51.598;7.650;2024-01-30T02:13:13;9.20;65.90
33007;DHT22;19361;51.598;7.650;2024-01-30T02:18:13;9.20;66.00
33007;DHT22;19361;51.598;7.650;2024-01-30T02:23:15;9.20;66.30
33007;DHT22;19361;51.598;7.650;2024-01-30T02:28:16;9.20;66.80
33007;DHT22;19361;51.598;7.650;2024-01-30T02:33:17;9.20;66.70
33007;DHT22;19361;51.598;7.650;2024-01-30T02:38:17;9.30;67.00
33007;DHT22;19361;51.598;7.650;2024-01-30T02:43:18;9.30;67.20
33007;DHT22;19361;51.598;7.650;2024-01-30T02:48:19;9.40;67.20
33007;DHT22;19361;51.598;7.650;2024-01-30T02:53:20;9.40;67.30
33007;DHT22;19361;51.598;7.650;2024-01-30T02:58:20;9.40;67.50
33007;DHT22;19361;51.598;7.650;2024-01-30T03:03:21;9.50;67.50
33007;DHT22;19361;51.598;7.650;2024-01-30T03:08:22;9.50;67.40
33007;DHT22;19361;51.598;7.650;2024-01-30T03:13:23;9.50;67.30
33007;DHT22;19361;51.598;7.650;2024-01-30T03:18:25;9.50;67.80
33007;DHT22;19361;51.598;7.650;2024-01-30T03:23:26;9.60;67.50
33007;DHT22;19361;51.598;7.650;2024-01-30T03:28:26;9.60;67.40
33007;DHT22;19361;51.598;7.650;2024-01-30T03:33:27;9.60;67.30
33007;DHT22;19361;51.598;7.650;2024-01-30T03:38:28;9.60;67.30
33007;DHT22;19361;51.598;7.650;2024-01-30T03:43:29;9.60;67.30
33007;DHT22;19361;51.598;7.650;2024-01-30T03:48:30;9.70;67.40
33007;DHT22;19361;51.598;7.650;2024-01-30T03:53:30;9.60;67.60
33007;DHT22;19361;51.598;7.650;2024-01-30T03:58:31;9.70;67.60
33007;DHT22;19361;51.598;7.650;2024-01-30T04:03:32;9.70;67.60
33007;DHT22;19361;51.598;7.650;2024-01-30T04:08:33;9.70;67.40
33007;DHT22;19361;51.598;7.650;2024-01-30T04:13:34;9.70;67.20
33007;DHT22;19361;51.598;7.650;2024-01-30T04:18:34;9.70;67.10
33007;DHT22;19361;51.598;7.650;2024-01-30T04:23:35;9.70;67.10
33007;DHT22;19361;51.598;7.650;2024-01-30T04:28:35;9.70;67.30
33007;DHT22;19361;51.598;7.650;2024-01-30T04:33:36;9.70;67.40
33007;DHT22;19361;51.598;7.650;2024-01-30T04:38:38;9.70;67.50
33007;DHT22;19361;51.598;7.650;2024-01-30T04:43:39;9.70;67.70
33007;DHT22;19361;51.598;7.650;2024-01-30T04:48:40;9.70;67.70
33007;DHT22;19361;51.598;7.650;2024-01-30T04:53:40;9.70;67.90
33007;DHT22;19361;51.598;7.650;2024-01-30T04:58:41;9.70;68.10
33007;DHT22;19361;51.598;7.650;2024-01-30T05:03:42;9.70;68.20
33007;DHT22;19361;51.598;7.650;2024-01-30T05:08:42;9.70;68.00
33007;DHT22;19361;51.598;7.650;2024-01-30T05:13:43;9.70;68.00
33007;DHT22;19361;51.598;7.650;2024-01-30T05:18:44;9.70;67.80
33007;DHT22;19361;51.598;7.650;2024-01-30T05:23:44;9.70;67.80
33007;DHT22;19361;51.598;7.650;2024-01-30T05:28:45;9.70;67.70
33007;DHT22;19361;51.598;7.650;2024-01-30T05:33:46;9.70;67.80
33007;DHT22;19361;51.598;7.650;2024-01-30T05:38:47;9.60;67.70
33007;DHT22;19361;51.598;7.650;2024-01-30T05:43:47;9.60;67.70
33007;DHT22;19361;51.598;7.650;2024-01-30T05:48:48;9.60;67.60
33007;DHT22;19361;51.598;7.650;2024-01-30T05:53:49;9.60;67.50
33007;DHT22;19361;51.598;7.650;2024-01-30T05:58:49;9.50;67.60
33007;DHT22;19361;51.598;7.650;2024-01-30T06:03:50;9.50;67.70
33007;DHT22;19361;51.598;7.650;2024-01-30T06:08:51;9.50;67.60
33007;DHT22;19361;51.598;7.650;2024-01-30T06:13:52;9.50;67.60
33007;DHT22;19361;51.598;7.650;2024-01-30T06:18:52;9.50;67.70
33007;DHT22;19361;51.598;7.650;2024-01-30T06:23:53;9.50;67.60
33007;DHT22;19361;51.598;7.650;2024-01-30T06:28:54;9.40;67.50
33007;DHT22;19361;51.598;7.650;2024-01-30T06:33:54;9.40;67.80
33007;DHT22;19361;51.598;7.650;2024-01-30T06:38:55;9.40;67.80
33007;DHT22;19361;51.598;7.650;2024-01-30T06:43:56;9.40;67.70
33007;DHT22;19361;51.598;7.650;2024-01-30T06:48:57;9.40;67.70
33007;DHT22;19361;51.598;7.650;2024-01-30T06:53:57;9.40;67.70
33007;DHT22;19361;51.598;7.650;2024-01-30T06:58:58;9.40;67.70
33007;DHT22;19361;51.598;7.650;2024-01-30T07:03:59;9.40;67.70
33007;DHT22;19361;51.598;7.650;2024-01-30T07:09:00;9.40;67.80
33007;DHT22;19361;51.598;7.650;2024-01-30T07:14:01;9.40;67.80
33007;DHT22;19361;51.598;7.650;2024-01-30T07:19:05;9.40;67.70
33007;DHT22;19361;51.598;7.650;2024-01-30T07:24:06;9.40;67.70
33007;DHT22;19361;51.598;7.650;2024-01-30T07:29:06;9.40;67.90
33007;DHT22;19361;51.598;7.650;2024-01-30T07:34:08;9.40;68.10
33007;DHT22;19361;51.598;7.650;2024-01-30T07:39:09;9.40;68.40
33007;DHT22;19361;51.598;7.650;2024-01-30T07:44:10;9.50;68.60
33007;DHT22;19361;51.598;7.650;2024-01-30T07:49:11;9.50;68.70
33007;DHT22;19361;51.598;7.650;2024-01-30T07:54:12;9.60;68.90
33007;DHT22;19361;51.598;7.650;2024-01-30T07:59:13;9.70;68.90
33007;DHT22;19361;51.598;7.650;2024-01-30T08:04:14;9.70;68.90
33007;DHT22;19361;51.598;7.650;2024-01-30T08:09:14;9.80;68.90
33007;DHT22;19361;51.598;7.650;2024-01-30T08:14:15;9.90;69.10
33007;DHT22;19361;51.598;7.650;2024-01-30T08:19:15;10.00;69.20
33007;DHT22;19361;51.598;7.650;2024-01-30T08:24:16;10.10;70.00
33007;DHT22;19361;51.598;7.650;2024-01-30T08:29:17;10.20;70.10
33007;DHT22;19361;51.598;7.650;2024-01-30T08:34:18;10.40;70.40
33007;DHT22;19361;51.598;7.650;2024-01-30T08:39:18;10.60;70.00
33007;DHT22;19361;51.598;7.650;2024-01-30T08:44:19;10.70;69.80
33007;DHT22;19361;51.598;7.650;2024-01-30T08:49:20;10.80;69.80
33007;DHT22;19361;51.598;7.650;2024-01-30T08:54:21;11.00;69.80
33007;DHT22;19361;51.598;7.650;2024-01-30T08:59:22;11.10;69.60
33007;DHT22;19361;51.598;7.650;2024-01-30T09:04:22;11.10;69.50
33007;DHT22;19361;51.598;7.650;2024-01-30T09:09:23;11.20;69.20
33007;DHT22;19361;51.598;7.650;2024-01-30T09:14:24;11.40;69.20
33007;DHT22;19361;51.598;7.650;2024-01-30T09:19:25;11.40;69.10
33007;DHT22;19361;51.598;7.650;2024-01-30T09:24:26;11.60;69.10
33007;DHT22;19361;51.598;7.650;2024-01-30T09:29:27;11.60;69.00
33007;DHT22;19361;51.598;7.650;2024-01-30T09:34:28;11.70;68.80
33007;DHT22;19361;51.598;7.650;2024-01-30T09:39:28;11.80;68.70
33007;DHT22;19361;51.598;7.650;2024-01-30T09:44:29;11.90;69.20
33007;DHT22;19361;51.598;7.650;2024-01-30T09:49:34;12.00;68.60
33007;DHT22;19361;51.598;7.650;2024-01-30T09:54:36;12.10;68.60
33007;DHT22;19361;51.598;7.650;2024-01-30T09:59:36;12.10;68.50
33007;DHT22;19361;51.598;7.650;2024-01-30T10:04:37;12.20;68.30
33007;DHT22;19361;51.598;7.650;2024-01-30T10:09:38;12.30;68.30
33007;DHT22;19361;51.598;7.650;2024-01-30T10:14:39;12.40;68.20
33007;DHT22;19361;51.598;7.650;2024-01-30T10:19:41;12.40;68.00
33007;DHT22;19361;51.598;7.650;2024-01-30T10:24:43;12.50;67.90
33007;DHT22;19361;51.598;7.650;2024-01-30T10:29:48;12.60;67.80
33007;DHT22;19361;51.598;7.650;2024-01-30T10:34:49;12.60;67.90
33007;DHT22;19361;51.598;7.650;2024-01-30T10:39:52;12.70;67.80
33007;DHT22;19361;51.598;7.650;2024-01-30T10:45:09;12.70;67.70
33007;DHT22;19361;51.598;7.650;2024-01-30T10:50:13;12.80;67.80
33007;DHT22;19361;51.598;7.650;2024-01-30T10:55:15;12.90;67.70
33007;DHT22;19361;51.598;7.650;2024-01-30T11:00:17;13.00;67.80
33007;DHT22;19361;51.598;7.650;2024-01-30T11:05:24;13.10;67.80
33007;DHT22;19361;51.598;7.650;2024-01-30T11:10:27;13.30;67.60
33007;DHT22;19361;51.598;7.650;2024-01-30T11:15:28;13.40;67.40
33007;DHT22;19361;51.598;7.650;2024-01-30T11:20:32;13.60;67.10
33007;DHT22;19361;51.598;7.650;2024-01-30T11:25:33;13.70;66.10
33007;DHT22;19361;51.598;7.650;2024-01-30T11:30:34;13.90;65.80
33007;DHT22;19361;51.598;7.650;2024-01-30T11:35:36;14.00;65.60
33007;DHT22;19361;51.598;7.650;2024-01-30T11:40:41;14.10;65.50
33007;DHT22;19361;51.598;7.650;2024-01-30T11:45:41;14.20;65.10
33007;DHT22;19361;51.598;7.650;2024-01-30T11:50:44;14.40;64.70
33007;DHT22;19361;51.598;7.650;2024-01-30T11:55:51;14.60;64.50
33007;DHT22;19361;51.598;7.650;2024-01-30T12:00:58;14.70;63.70
33007;DHT22;19361;51.598;7.650;2024-01-30T12:05:59;14.80;63.50
33007;DHT22;19361;51.598;7.650;2024-01-30T12:11:00;14.80;63.50
33007;DHT22;19361;51.598;7.650;2024-01-30T12:16:06;14.80;63.80
33007;DHT22;19361;51.598;7.650;2024-01-30T12:21:07;14.80;63.90
33007;DHT22;19361;51.598;7.650;2024-01-30T12:26:10;14.90;64.00
33007;DHT22;19361;51.598;7.650;2024-01-30T12:31:11;14.90;64.20
33007;DHT22;19361;51.598;7.650;2024-01-30T12:36:12;14.90;64.20
33007;DHT22;19361;51.598;7.650;2024-01-30T12:41:12;14.90;64.40
33007;DHT22;19361;51.598;7.650;2024-01-30T12:46:13;15.00;64.60
33007;DHT22;19361;51.598;7.650;2024-01-30T12:51:14;15.00;64.60
33007;DHT22;19361;51.598;7.650;2024-01-30T12:56:15;15.00;64.50
33007;DHT22;19361;51.598;7.650;2024-01-30T13:01:16;15.00;64.50
33007;DHT22;19361;51.598;7.650;2024-01-30T13:06:17;14.90;64.40
33007;DHT22;19361;51.598;7.650;2024-01-30T13:11:17;14.90;64.60
33007;DHT22;19361;51.598;7.650;2024-01-30T13:16:18;14.90;64.70
33007;DHT22;19361;51.598;7.650;2024-01-30T13:21:19;14.80;64.80
33007;DHT22;19361;51.598;7.650;2024-01-30T13:26:20;14.80;65.00
33007;DHT22;19361;51.598;7.650;2024-01-30T13:31:21;14.80;65.10
33007;DHT22;19361;51.598;7.650;2024-01-30T13:36:22;14.80;65.20
33007;DHT22;19361;51.598;7.650;2024-01-30T13:41:23;14.80;65.20
33007;DHT22;19361;51.598;7.650;2024-01-30T13:46:23;14.80;65.30
33007;DHT22;19361;51.598;7.650;2024-01-30T13:51:24;14.80;65.30
33007;DHT22;19361;51.598;7.650;2024-01-30T13:56:25;14.80;65.30
33007;DHT22;19361;51.598;7.650;2024-01-30T14:01:27;14.70;65.20
33007;DHT22;19361;51.598;7.650;2024-01-30T14:06:27;14.70;65.30
33007;DHT22;19361;51.598;7.650;2024-01-30T14:11:28;14.70;65.30
33007;DHT22;19361;51.598;7.650;2024-01-30T14:16:29;14.70;65.30
33007;DHT22;19361;51.598;7.650;2024-01-30T14:21:29;14.70;65.40
33007;DHT22;19361;51.598;7.650;2024-01-30T14:26:30;14.70;65.40
33007;DHT22;19361;51.598;7.650;2024-01-30T14:31:31;14.70;65.40
33007;DHT22;19361;51.598;7.650;2024-01-30T14:36:31;14.70;65.50
33007;DHT22;19361;51.598;7.650;2024-01-30T14:41:32;14.60;65.50
33007;DHT22;19361;51.598;7.650;2024-01-30T14:46:33;14.60;65.50
33007;DHT22;19361;51.598;7.650;2024-01-30T14:51:34;14.60;65.60
33007;DHT22;19361;51.598;7.650;2024-01-30T14:56:34;14.60;65.60
33007;DHT22;19361;51.598;7.650;2024-01-30T15:01:35;14.60;65.70
33007;DHT22;19361;51.598;7.650;2024-01-30T15:06:36;14.60;65.80
33007;DHT22;19361;51.598;7.650;2024-01-30T15:11:37;14.60;65.70
33007;DHT22;19361;51.598;7.650;2024-01-30T15:16:38;14.60;65.60
33007;DHT22;19361;51.598;7.650;2024-01-30T15:21:39;14.60;65.50
33007;DHT22;19361;51.598;7.650;2024-01-30T15:26:39;14.60;65.40
33007;DHT22;19361;51.598;7.650;2024-01-30T15:31:40;14.60;65.40
33007;DHT22;19361;51.598;7.650;2024-01-30T15:36:41;14.60;65.20
33007;DHT22;19361;51.598;7.650;2024-01-30T15:41:42;14.50;65.10
33007;DHT22;19361;51.598;7.650;2024-01-30T15:46:42;14.50;65.00
33007;DHT22;19361;51.598;7.650;2024-01-30T15:51:43;14.40;65.00
33007;DHT22;19361;51.598;7.650;2024-01-30T15:56:44;14.40;65.10
33007;DHT22;19361;51.598;7.650;2024-01-30T16:01:44;14.30;65.10
33007;DHT22;19361;51.598;7.650;2024-01-30T16:06:49;14.20;65.10
33007;DHT22;19361;51.598;7.650;2024-01-30T16:11:50;14.20;65.10
33007;DHT22;19361;51.598;7.650;2024-01-30T16:16:50;14.10;65.10
33007;DHT22;19361;51.598;7.650;2024-01-30T16:21:51;14.10;64.90
33007;DHT22;19361;51.598;7.650;2024-01-30T16:26:52;14.00;64.20
33007;DHT22;19361;51.598;7.650;2024-01-30T16:31:52;14.00;63.50
33007;DHT22;19361;51.598;7.650;2024-01-30T16:36:53;13.90;62.60
33007;DHT22;19361;51.598;7.650;2024-01-30T16:41:54;13.90;61.90
33007;DHT22;19361;51.598;7.650;2024-01-30T16:46:54;13.80;60.90
33007;DHT22;19361;51.598;7.650;2024-01-30T16:51:55;13.80;60.10
33007;DHT22;19361;51.598;7.650;2024-01-30T16:56:56;13.80;60.00
33007;DHT22;19361;51.598;7.650;2024-01-30T17:01:56;13.70;60.10
33007;DHT22;19361;51.598;7.650;2024-01-30T17:06:57;13.70;60.20
33007;DHT22;19361;51.598;7.650;2024-01-30T17:11:59;13.70;60.10
33007;DHT22;19361;51.598;7.650;2024-01-30T17:17:03;13.60;59.90
33007;DHT22;19361;51.598;7.650;2024-01-30T17:22:04;13.60;59.00
33007;DHT22;19361;51.598;7.650;2024-01-30T17:27:06;13.50;58.70
33007;DHT22;19361;51.598;7.650;2024-01-30T17:32:07;13.50;58.50
33007;DHT22;19361;51.598;7.650;2024-01-30T17:37:08;13.40;58.50
33007;DHT22;19361;51.598;7.650;2024-01-30T17:42:08;13.40;58.50
33007;DHT22;19361;51.598;7.650;2024-01-30T17:47:09;13.30;58.10
33007;DHT22;19361;51.598;7.650;2024-01-30T17:52:10;13.20;57.60
33007;DHT22;19361;51.598;7.650;2024-01-30T17:57:11;13.20;58.30
33007;DHT22;19361;51.598;7.650;2024-01-30T18:02:11;13.10;58.40
33007;DHT22;19361;51.598;7.650;2024-01-30T18:07:14;13.10;58.30
33007;DHT22;19361;51.598;7.650;2024-01-30T18:12:14;13.00;58.20
33007;DHT22;19361;51.598;7.650;2024-01-30T18:17:15;13.00;58.40
33007;DHT22;19361;51.598;7.650;2024-01-30T18:22:16;13.00;58.20
33007;DHT22;19361;51.598;7.650;2024-01-30T18:27:17;13.00;58.30
33007;DHT22;19361;51.598;7.650;2024-01-30T18:32:18;13.00;58.40
33007;DHT22;19361;51.598;7.650;2024-01-30T18:37:18;13.00;59.10
33007;DHT22;19361;51.598;7.650;2024-01-30T18:42:19;13.00;60.60
33007;DHT22;19361;51.598;7.650;2024-01-30T18:47:20;12.90;60.90
33007;DHT22;19361;51.598;7.650;2024-01-30T18:52:21;12.80;61.10
33007;DHT22;19361;51.598;7.650;2024-01-30T18:57:21;12.70;61.50
33007;DHT22;19361;51.598;7.650;2024-01-30T19:02:22;12.60;61.70
33007;DHT22;19361;51.598;7.650;2024-01-30T19:07:23;12.50;62.00
33007;DHT22;19361;51.598;7.650;2024-01-30T19:12:24;12.50;62.10
33007;DHT22;19361;51.598;7.650;2024-01-30T19:17:24;12.50;62.10
33007;DHT22;19361;51.598;7.650;2024-01-30T19:22:25;12.40;62.00
33007;DHT22;19361;51.598;7.650;2024-01-30T19:27:26;12.40;61.40
33007;DHT22;19361;51.598;7.650;2024-01-30T19:32:27;12.40;61.20
33007;DHT22;19361;51.598;7.650;2024-01-30T19:37:29;12.30;60.90
33007;DHT22;19361;51.598;7.650;2024-01-30T19:42:32;12.30;60.90
33007;DHT22;19361;51.598;7.650;2024-01-30T19:47:33;12.20;60.80
33007;DHT22;19361;51.598;7.650;2024-01-30T19:52:34;12.20;60.80
33007;DHT22;19361;51.598;7.650;2024-01-30T19:57:37;12.20;60.70
33007;DHT22;19361;51.598;7.650;2024-01-30T20:02:37;12.20;60.70
33007;DHT22;19361;51.598;7.650;2024-01-30T20:07:39;12.20;60.70
33007;DHT22;19361;51.598;7.650;2024-01-30T20:12:39;12.20;60.80
33007;DHT22;19361;51.598;7.650;2024-01-30T20:17:42;12.10;60.80
33007;DHT22;19361;51.598;7.650;2024-01-30T20:22:44;12.10;60.80
33007;DHT22;19361;51.598;7.650;2024-01-30T20:27:47;12.10;60.90
33007;DHT22;19361;51.598;7.650;2024-01-30T20:32:48;12.10;61.00
33007;DHT22;19361;51.598;7.650;2024-01-30T20:37:49;12.00;60.90
33007;DHT22;19361;51.598;7.650;2024-01-30T20:42:51;12.00;61.10
33007;DHT22;19361;51.598;7.650;2024-01-30T20:47:52;12.00;61.20
33007;DHT22;19361;51.598;7.650;2024-01-30T20:52:52;11.90;61.50
33007;DHT22;19361;51.598;7.650;2024-01-30T20:57:53;11.90;61.70
33007;DHT22;19361;51.598;7.650;2024-01-30T21:02:54;11.90;62.10
33007;DHT22;19361;51.598;7.650;2024-01-30T21:07:55;11.80;62.00
33007;DHT22;19361;51.598;7.650;2024-01-30T21:12:56;11.80;62.60
33007;DHT22;19361;51.598;7.650;2024-01-30T21:17:56;11.80;62.70
33007;DHT22;19361;51.598;7.650;2024-01-30T21:22:57;11.80;62.90
33007;DHT22;19361;51.598;7.650;2024-01-30T21:27:58;11.80;63.00
33007;DHT22;19361;51.598;7.650;2024-01-30T21:32:58;11.80;63.00
33007;DHT22;19361;51.598;7.650;2024-01-30T21:38:00;11.70;63.10
33007;DHT22;19361;51.598;7.650;2024-01-30T21:43:01;11.70;63.10
33007;DHT22;19361;51.598;7.650;2024-01-30T21:48:01;11.70;63.30
33007;DHT22;19361;51.598;7.650;2024-01-30T21:53:02;11.70;63.50
33007;DHT22;19361;51.598;7.650;2024-01-30T21:58:04;11.70;63.60
33007;DHT22;19361;51.598;7.650;2024-01-30T22:03:05;11.60;63.60
33007;DHT22;19361;51.598;7.650;2024-01-30T22:08:05;11.60;63.80
33007;DHT22;19361;51.598;7.650;2024-01-30T22:13:06;11.60;64.00
33007;DHT22;19361;51.598;7.650;2024-01-30T22:18:07;11.60;64.00
33007;DHT22;19361;51.598;7.650;2024-01-30T22:23:08;11.60;64.20
33007;DHT22;19361;51.598;7.650;2024-01-30T22:28:09;11.60;64.30
33007;DHT22;19361;51.598;7.650;2024-01-30T22:33:10;11.50;64.50
33007;DHT22;19361;51.598;7.650;2024-01-30T22:38:11;11.50;64.80
33007;DHT22;19361;51.598;7.650;2024-01-30T22:43:12;11.50;65.00
33007;DHT22;19361;51.598;7.650;2024-01-30T22:48:12;11.40;65.10
33007;DHT22;19361;51.598;7.650;2024-01-30T22:53:13;11.40;65.40
33007;DHT22;19361;51.598;7.650;2024-01-30T22:58:14;11.40;65.40
33007;DHT22;19361;51.598;7.650;2024-01-30T23:03:15;11.40;65.50
33007;DHT22;19361;51.598;7.650;2024-01-30T23:08:15;11.40;65.70
33007;DHT22;19361;51.598;7.650;2024-01-30T23:13:16;11.30;65.60
33007;DHT22;19361;51.598;7.650;2024-01-30T23:18:17;11.30;65.60
33007;DHT22;19361;51.598;7.650;2024-01-30T23:23:18;11.30;65.80
33007;DHT22;19361;51.598;7.650;2024-01-30T23:28:18;11.30;66.10
33007;DHT22;19361;51.598;7.650;2024-01-30T23:33:19;11.20;66.20
33007;DHT22;19361;51.598;7.650;2024-01-30T23:38:20;11.20;66.40
33007;DHT22;19361;51.598;7.650;2024-01-30T23:43:21;11.10;66.50
33007;DHT22;19361;51.598;7.650;2024-01-30T23:48:21;11.10;66.70
33007;DHT22;19361;51.598;7.650;2024-01-30T23:53:22;11.00;66.80
33007;DHT22;19361;51.598;7.650;2024-01-30T23:58:23;11.00;67.00
